Terminal Aerodrome Forecast
Issued by NWS

Home | Current Version | Previous Version | Text Only | Print | Product List | Glossary On
Versions: 1 2 3 4 5 6 7 8 9 10 11 12 13 14 15 16
000
FTUS44 KOUN 291721
TAFPNC
TAF
KPNC 291721Z 2918/3018 12008KT P6SM BKN120 BKN200
     FM300600 09004KT P6SM BKN080 OVC120
      TEMPO 3007/3011 P6SM -TSRA BKN050CB OVC120=

USA.gov is the U.S. government's official web portal to all federal, state and local government web resources and services.